Time;durP1;ratioP1;P1;durP2;ratioP2;P2;SDS_P1;SDS_P2;PMS_P1;PMS_P2;Temp;Humidity;BMP_temperature;BMP_pressure;BME280_temperature;BME280_humidity;BME280_pressure;Samples;Min_cycle;Max_cycle;Signal;HPM_P1;HPM_P2
2021/10/11 00:02:18;;;;;;;141.60;46.65;;;8.60;62.90;;;;;;5037091;28;20092;-35
2021/10/11 00:04:43;;;;;;;125.50;43.25;;;8.60;62.90;;;;;;5036913;28;20029;-39
2021/10/11 00:07:09;;;;;;;78.30;29.77;;;8.50;62.90;;;;;;5036547;28;20044;-34
2021/10/11 00:09:36;;;;;;;57.83;23.23;;;8.50;62.80;;;;;;5037107;28;20025;-39
2021/10/11 00:12:03;;;;;;;43.78;19.63;;;8.50;62.70;;;;;;5036728;28;20169;-39
2021/10/11 00:14:29;;;;;;;41.10;18.73;;;8.50;62.60;;;;;;5037266;28;20032;-34
2021/10/11 00:16:55;;;;;;;43.53;19.02;;;8.50;62.50;;;;;;5036653;28;20104;-39
2021/10/11 00:19:20;;;;;;;127.63;43.95;;;8.40;62.50;;;;;;5036584;28;20030;-34
2021/10/11 00:21:46;;;;;;;130.57;45.17;;;8.40;62.70;;;;;;5035313;28;20079;-37
2021/10/11 00:24:12;;;;;;;34.05;16.17;;;8.40;62.80;;;;;;5036530;28;20021;-34
2021/10/11 00:26:38;;;;;;;30.58;15.80;;;8.30;62.70;;;;;;5036165;28;20433;-35
2021/10/11 00:29:04;;;;;;;26.38;15.27;;;8.20;62.70;;;;;;5036458;28;20049;-34
2021/10/11 00:31:30;;;;;;;24.33;13.85;;;8.10;62.60;;;;;;5036636;28;20030;-35
2021/10/11 00:33:58;;;;;;;27.85;15.23;;;8.10;62.70;;;;;;5036309;28;20382;-35
2021/10/11 00:36:25;;;;;;;25.58;14.20;;;8.00;62.80;;;;;;5036224;28;20029;-35
2021/10/11 00:38:51;;;;;;;24.52;13.35;;;8.00;62.90;;;;;;5037039;28;20060;-40
2021/10/11 00:41:17;;;;;;;27.67;14.73;;;7.90;63.10;;;;;;5035942;28;20028;-35
2021/10/11 00:43:44;;;;;;;27.13;14.82;;;7.90;63.20;;;;;;5036269;28;20030;-39
2021/10/11 00:46:11;;;;;;;29.20;13.75;;;7.80;63.20;;;;;;5036085;28;20482;-35
2021/10/11 00:48:37;;;;;;;24.63;13.80;;;7.80;63.20;;;;;;5036483;28;20025;-38
2021/10/11 00:51:05;;;;;;;28.80;15.15;;;7.70;63.30;;;;;;5035807;28;20026;-34
2021/10/11 00:53:32;;;;;;;27.20;14.40;;;7.70;63.50;;;;;;5036584;28;20049;-39
2021/10/11 00:55:58;;;;;;;27.08;14.52;;;7.60;63.60;;;;;;5035779;28;20381;-35
2021/10/11 00:58:24;;;;;;;28.42;15.70;;;7.60;63.60;;;;;;5036253;28;20034;-35
2021/10/11 01:00:49;;;;;;;26.13;14.48;;;7.60;63.60;;;;;;5036265;28;20287;-38
2021/10/11 01:03:15;;;;;;;25.92;14.13;;;7.50;63.70;;;;;;5036151;28;20029;-38
2021/10/11 01:05:41;;;;;;;25.70;14.70;;;7.50;63.80;;;;;;5035852;28;20371;-39
2021/10/11 01:08:07;;;;;;;26.90;14.57;;;7.50;64.00;;;;;;5035820;28;20124;-38
2021/10/11 01:10:32;;;;;;;24.38;14.82;;;7.40;63.90;;;;;;5036355;28;20076;-38
2021/10/11 01:12:58;;;;;;;24.83;15.07;;;7.40;64.00;;;;;;5034751;28;20034;-38
2021/10/11 01:15:24;;;;;;;24.77;13.40;;;7.40;64.00;;;;;;5036004;28;20033;-38
2021/10/11 01:17:50;;;;;;;24.95;14.13;;;7.30;64.00;;;;;;5035638;28;20042;-34
2021/10/11 01:20:16;;;;;;;20.85;13.07;;;7.30;64.10;;;;;;5035687;28;20033;-39
2021/10/11 01:22:44;;;;;;;25.27;14.48;;;7.30;64.10;;;;;;5035726;28;20033;-34
2021/10/11 01:25:14;;;;;;;32.92;16.17;;;7.30;64.20;;;;;;5035777;28;20034;-39
2021/10/11 01:27:40;;;;;;;42.40;21.13;;;7.30;64.80;;;;;;5035666;28;20064;-38
2021/10/11 01:30:09;;;;;;;49.38;25.50;;;7.30;64.40;;;;;;5035906;28;20029;-35
2021/10/11 01:32:35;;;;;;;68.72;31.48;;;7.30;64.50;;;;;;5035618;28;20037;-38
2021/10/11 01:35:01;;;;;;;61.45;29.73;;;7.30;64.60;;;;;;5035666;28;20025;-35
2021/10/11 01:37:27;;;;;;;33.78;18.30;;;7.30;64.80;;;;;;5035597;28;20357;-35
2021/10/11 01:39:53;;;;;;;39.95;20.30;;;7.20;64.70;;;;;;5035567;28;20275;-38
2021/10/11 01:42:18;;;;;;;28.35;15.15;;;7.20;64.70;;;;;;5035606;28;20083;-39
2021/10/11 01:44:44;;;;;;;30.23;15.30;;;7.20;64.70;;;;;;5035355;28;20037;-35
2021/10/11 01:47:10;;;;;;;32.17;18.13;;;7.20;64.60;;;;;;5035246;28;20066;-38
2021/10/11 01:49:35;;;;;;;29.67;16.40;;;7.20;64.70;;;;;;5035595;28;20033;-35
2021/10/11 01:52:01;;;;;;;25.65;14.18;;;7.20;64.90;;;;;;5035161;28;20037;-39
2021/10/11 01:54:27;;;;;;;24.73;14.65;;;7.20;64.90;;;;;;5035315;28;20033;-38
2021/10/11 01:56:52;;;;;;;29.05;15.27;;;7.20;64.90;;;;;;5035071;28;20090;-35
2021/10/11 01:59:18;;;;;;;26.98;15.27;;;7.20;64.90;;;;;;5035468;28;20041;-35
2021/10/11 02:01:44;;;;;;;24.65;13.70;;;7.20;64.80;;;;;;5035075;28;20414;-35
2021/10/11 02:04:09;;;;;;;26.63;15.10;;;7.20;64.70;;;;;;5035278;28;20045;-38
2021/10/11 02:06:35;;;;;;;29.38;15.80;;;7.20;64.80;;;;;;5034863;28;20033;-38
2021/10/11 02:09:00;;;;;;;24.75;15.18;;;7.20;64.90;;;;;;5035124;28;20041;-34
2021/10/11 02:11:28;;;;;;;26.90;14.35;;;7.20;64.90;;;;;;5035222;28;20025;-34
2021/10/11 02:13:55;;;;;;;24.73;14.13;;;7.10;64.90;;;;;;5035064;28;20111;-35
2021/10/11 02:16:21;;;;;;;28.48;15.10;;;7.20;65.00;;;;;;5034765;28;20029;-38
2021/10/11 02:18:46;;;;;;;26.35;14.10;;;7.20;65.00;;;;;;5035575;28;20149;-38
2021/10/11 02:21:12;;;;;;;25.10;14.82;;;7.10;65.00;;;;;;5037350;28;20025;-38
2021/10/11 02:23:38;;;;;;;30.15;14.65;;;7.10;65.10;;;;;;5039349;28;20025;-33
2021/10/11 02:26:04;;;;;;;25.48;14.32;;;7.10;65.20;;;;;;5038744;28;20361;-38
2021/10/11 02:28:29;;;;;;;28.13;15.10;;;7.00;65.20;;;;;;5039071;28;20365;-33
2021/10/11 02:30:55;;;;;;;27.00;15.07;;;7.00;65.30;;;;;;5038722;28;20083;-38
2021/10/11 02:33:21;;;;;;;28.25;14.13;;;7.00;65.30;;;;;;5038750;28;20033;-33
2021/10/11 02:35:46;;;;;;;22.13;13.10;;;7.00;65.30;;;;;;5038539;28;20057;-33
2021/10/11 02:38:12;;;;;;;25.75;14.73;;;7.00;65.30;;;;;;5038647;28;20041;-33
2021/10/11 02:40:39;;;;;;;28.63;15.93;;;7.00;65.40;;;;;;5038808;28;20083;-38
2021/10/11 02:43:05;;;;;;;27.73;14.98;;;7.00;65.50;;;;;;5038588;28;20033;-34
2021/10/11 02:45:31;;;;;;;27.27;15.05;;;7.00;65.50;;;;;;5038481;28;20036;-33
2021/10/11 02:47:57;;;;;;;30.70;16.25;;;7.00;65.50;;;;;;5038142;28;20037;-33
2021/10/11 02:50:22;;;;;;;24.77;14.45;;;6.90;65.50;;;;;;5038281;28;20038;-37
2021/10/11 02:52:48;;;;;;;22.17;13.90;;;6.90;65.50;;;;;;5038401;28;20030;-35
2021/10/11 02:55:14;;;;;;;26.23;15.18;;;6.90;65.60;;;;;;5038417;28;20143;-35
2021/10/11 02:57:39;;;;;;;24.25;14.18;;;6.90;65.60;;;;;;5038065;28;20061;-34
2021/10/11 03:00:07;;;;;;;26.08;15.35;;;6.90;65.70;;;;;;5038033;28;20329;-39
2021/10/11 03:02:33;;;;;;;26.00;14.23;;;6.90;65.70;;;;;;5038171;28;20038;-39
2021/10/11 03:04:59;;;;;;;21.33;13.73;;;6.90;65.70;;;;;;5038247;28;20068;-38
2021/10/11 03:07:25;;;;;;;23.15;14.90;;;6.90;65.60;;;;;;5038097;28;20117;-38
2021/10/11 03:09:50;;;;;;;28.65;15.35;;;6.90;65.70;;;;;;5037769;28;20075;-35
2021/10/11 03:12:16;;;;;;;25.10;14.75;;;6.90;65.70;;;;;;5037826;28;20030;-35
2021/10/11 03:14:42;;;;;;;23.35;13.70;;;6.90;65.60;;;;;;5037969;28;20095;-34
2021/10/11 03:17:07;;;;;;;25.45;15.73;;;6.90;65.60;;;;;;5037711;28;20052;-38
2021/10/11 03:19:33;;;;;;;28.98;15.30;;;6.90;65.60;;;;;;5038045;28;20038;-34
2021/10/11 03:21:59;;;;;;;34.45;15.98;;;6.80;65.60;;;;;;5036779;28;20037;-39
2021/10/11 03:24:25;;;;;;;27.20;15.45;;;6.80;65.60;;;;;;5037693;28;20077;-39
2021/10/11 03:26:50;;;;;;;29.50;16.33;;;6.80;65.60;;;;;;5037369;28;20090;-35
2021/10/11 03:29:17;;;;;;;27.45;15.55;;;6.80;65.60;;;;;;5037612;28;20078;-36
2021/10/11 03:31:43;;;;;;;24.77;14.68;;;6.80;65.60;;;;;;5036216;28;20030;-39
2021/10/11 03:34:11;;;;;;;28.08;15.13;;;6.70;65.70;;;;;;5037377;28;20083;-38
2021/10/11 03:36:40;;;;;;;26.50;16.42;;;6.70;65.80;;;;;;5037378;28;20040;-38
2021/10/11 03:39:06;;;;;;;28.63;16.58;;;6.70;65.80;;;;;;5037423;28;20040;-37
2021/10/11 03:41:33;;;;;;;26.95;15.60;;;6.70;65.90;;;;;;5037340;28;20044;-38
2021/10/11 03:44:00;;;;;;;27.95;16.83;;;6.70;66.00;;;;;;5037185;28;20442;-38
2021/10/11 03:46:26;;;;;;;29.40;15.50;;;6.60;65.90;;;;;;5037384;28;20333;-34
2021/10/11 03:48:52;;;;;;;29.42;16.92;;;6.60;65.90;;;;;;5037762;28;20029;-35
2021/10/11 03:51:21;;;;;;;28.50;16.50;;;6.60;66.00;;;;;;5037108;28;20429;-35
2021/10/11 03:53:47;;;;;;;22.35;14.90;;;6.60;66.10;;;;;;5037678;28;20127;-34
2021/10/11 03:56:13;;;;;;;33.53;16.95;;;6.50;66.10;;;;;;5036490;28;20105;-34
2021/10/11 03:58:39;;;;;;;28.00;15.48;;;6.50;66.10;;;;;;5037676;28;20045;-39
2021/10/11 04:01:04;;;;;;;27.77;16.13;;;6.50;66.30;;;;;;5036782;28;20061;-38
2021/10/11 04:03:31;;;;;;;28.08;15.65;;;6.50;66.30;;;;;;5037340;28;20073;-38
2021/10/11 04:05:56;;;;;;;28.08;15.88;;;6.50;66.40;;;;;;5037056;28;20041;-38
2021/10/11 04:08:23;;;;;;;33.40;16.35;;;6.50;66.40;;;;;;5036971;28;20087;-37
2021/10/11 04:10:58;;;;;;;31.60;15.52;;;6.50;66.50;;;;;;5036740;28;20026;-34
2021/10/11 04:13:23;;;;;;;27.98;14.75;;;6.50;66.60;;;;;;5037125;28;20076;-38
2021/10/11 04:15:49;;;;;;;33.15;16.70;;;6.50;66.60;;;;;;5036520;28;20065;-34
2021/10/11 04:18:15;;;;;;;26.17;16.65;;;6.50;66.70;;;;;;5036548;28;20057;-37
2021/10/11 04:20:41;;;;;;;32.67;18.02;;;6.50;66.70;;;;;;5036508;28;20056;-35
2021/10/11 04:23:07;;;;;;;35.75;18.50;;;6.50;66.80;;;;;;5036603;28;20031;-34
2021/10/11 04:25:33;;;;;;;35.33;17.05;;;6.50;66.90;;;;;;5036529;28;20038;-37
2021/10/11 04:27:59;;;;;;;42.92;19.05;;;6.50;66.90;;;;;;5036434;28;20061;-34
2021/10/11 04:30:24;;;;;;;32.55;16.90;;;6.50;67.00;;;;;;5036234;28;20025;-34
2021/10/11 04:32:50;;;;;;;36.53;18.33;;;6.50;67.10;;;;;;5036121;28;20095;-38
2021/10/11 04:35:16;;;;;;;37.20;18.42;;;6.50;67.20;;;;;;5036154;28;20029;-35
2021/10/11 04:37:42;;;;;;;30.70;17.67;;;6.50;67.80;;;;;;5036229;28;20068;-35
2021/10/11 04:40:09;;;;;;;36.60;18.13;;;6.50;67.30;;;;;;5036209;28;20330;-38
2021/10/11 04:42:35;;;;;;;51.67;21.38;;;6.50;67.40;;;;;;5035960;28;20049;-34
2021/10/11 04:45:01;;;;;;;40.80;20.67;;;6.60;67.60;;;;;;5035998;28;20036;-34
2021/10/11 04:47:27;;;;;;;39.63;18.67;;;6.60;67.70;;;;;;5036088;28;20313;-37
2021/10/11 04:49:52;;;;;;;43.33;19.92;;;6.60;67.70;;;;;;5036039;28;20036;-34
2021/10/11 04:52:18;;;;;;;42.10;21.98;;;6.60;67.80;;;;;;5036037;28;20109;-37
2021/10/11 04:54:43;;;;;;;61.35;22.05;;;6.60;67.80;;;;;;5035990;28;20030;-34
2021/10/11 04:57:09;;;;;;;71.43;22.20;;;6.60;68.00;;;;;;5035589;28;20058;-34
2021/10/11 04:59:35;;;;;;;55.03;20.15;;;6.60;68.10;;;;;;5036051;28;20032;-38
2021/10/11 05:02:00;;;;;;;36.05;19.05;;;6.70;68.30;;;;;;5035493;28;20033;-34
2021/10/11 05:04:26;;;;;;;44.60;17.75;;;6.70;68.30;;;;;;5035621;28;20029;-38
2021/10/11 05:06:52;;;;;;;35.85;18.40;;;6.70;68.30;;;;;;5035648;28;20029;-37
2021/10/11 05:09:17;;;;;;;48.00;20.50;;;6.80;68.30;;;;;;5035368;28;20021;-39
2021/10/11 05:11:43;;;;;;;44.30;20.55;;;6.90;68.40;;;;;;5035608;28;20032;-41
2021/10/11 05:14:08;;;;;;;40.33;21.10;;;6.90;68.30;;;;;;5035121;28;20026;-42
2021/10/11 05:16:35;;;;;;;40.85;19.58;;;7.00;68.50;;;;;;5035169;28;20025;-39
2021/10/11 05:19:01;;;;;;;42.60;22.23;;;7.00;68.60;;;;;;5035441;28;20064;-39
2021/10/11 05:21:27;;;;;;;45.53;22.35;;;7.10;68.70;;;;;;5035578;28;20025;-38
2021/10/11 05:23:53;;;;;;;40.28;21.05;;;7.10;68.90;;;;;;5035913;28;20372;-35
2021/10/11 05:26:18;;;;;;;40.00;20.42;;;7.20;69.10;;;;;;5034869;28;20024;-38
2021/10/11 05:28:44;;;;;;;36.42;18.63;;;7.30;69.00;;;;;;5035684;28;20033;-38
2021/10/11 05:31:11;;;;;;;30.48;17.85;;;7.40;69.00;;;;;;5034906;28;20057;-35
2021/10/11 05:33:36;;;;;;;41.20;20.08;;;7.40;68.90;;;;;;5035633;28;20038;-39
2021/10/11 05:36:03;;;;;;;71.55;30.15;;;7.50;68.80;;;;;;5034953;28;20044;-39
2021/10/11 05:38:29;;;;;;;73.32;30.95;;;7.50;68.80;;;;;;5035458;28;20444;-39
2021/10/11 05:40:55;;;;;;;54.63;23.25;;;7.60;68.80;;;;;;5034970;28;20026;-39
2021/10/11 05:43:21;;;;;;;48.22;24.05;;;7.70;68.70;;;;;;5035092;28;20041;-39
2021/10/11 05:45:47;;;;;;;36.55;21.38;;;7.80;68.80;;;;;;5035207;28;20033;-35
2021/10/11 05:48:13;;;;;;;34.25;19.33;;;7.80;68.70;;;;;;5034980;28;20038;-38
2021/10/11 05:50:39;;;;;;;36.50;21.65;;;7.90;68.50;;;;;;5034952;28;20028;-40
2021/10/11 05:53:04;;;;;;;31.05;19.60;;;8.00;68.60;;;;;;5034961;28;20036;-33
2021/10/11 05:55:30;;;;;;;49.72;24.73;;;8.10;68.50;;;;;;5036095;28;20021;-33
2021/10/11 05:57:57;;;;;;;54.90;23.88;;;8.20;68.50;;;;;;5039295;28;20115;-36
2021/10/11 06:00:23;;;;;;;48.30;25.35;;;8.30;68.70;;;;;;5037942;28;20033;-37
2021/10/11 06:02:49;;;;;;;44.03;23.48;;;8.40;68.50;;;;;;5039100;28;20156;-38
2021/10/11 06:05:15;;;;;;;39.90;20.75;;;8.50;68.30;;;;;;5038869;28;20422;-38
2021/10/11 06:07:40;;;;;;;63.22;22.63;;;8.50;68.10;;;;;;5038566;28;20045;-38
2021/10/11 06:10:06;;;;;;;35.63;19.52;;;8.60;68.40;;;;;;5038383;28;20026;-33
2021/10/11 06:12:32;;;;;;;38.88;19.75;;;8.70;67.60;;;;;;5038686;28;20026;-33
2021/10/11 06:14:59;;;;;;;39.45;20.67;;;8.80;67.40;;;;;;5038737;28;20083;-33
2021/10/11 06:17:24;;;;;;;146.63;63.45;;;8.90;67.10;;;;;;5038656;28;20044;-37
2021/10/11 06:19:52;;;;;;;121.28;57.03;;;9.00;66.90;;;;;;5038365;28;20033;-33
2021/10/11 06:22:18;;;;;;;66.78;30.98;;;9.00;66.40;;;;;;5038480;28;20426;-34
2021/10/11 06:24:44;;;;;;;105.43;58.33;;;9.10;66.10;;;;;;5038345;28;20426;-34
2021/10/11 06:27:09;;;;;;;63.30;32.47;;;9.20;66.00;;;;;;5037994;28;20329;-34
2021/10/11 06:29:35;;;;;;;35.47;18.38;;;9.30;65.90;;;;;;5038140;28;20021;-38
2021/10/11 06:32:01;;;;;;;46.95;22.95;;;9.30;65.60;;;;;;5038255;28;20030;-34
2021/10/11 06:34:26;;;;;;;30.33;18.52;;;9.40;65.40;;;;;;5038305;28;20025;-38
2021/10/11 06:36:52;;;;;;;35.80;20.38;;;9.50;65.20;;;;;;5038298;28;20068;-39
2021/10/11 06:39:18;;;;;;;34.45;20.83;;;9.50;65.20;;;;;;5038347;28;20029;-34
2021/10/11 06:41:44;;;;;;;36.05;21.52;;;9.60;65.10;;;;;;5038276;28;20075;-38
2021/10/11 06:44:09;;;;;;;37.30;19.88;;;9.60;64.90;;;;;;5038435;28;20048;-39
2021/10/11 06:46:35;;;;;;;32.15;18.55;;;9.70;64.90;;;;;;5038189;28;20108;-39
2021/10/11 06:49:01;;;;;;;30.67;18.83;;;9.80;64.70;;;;;;5037999;28;20021;-38
2021/10/11 06:51:27;;;;;;;34.28;17.80;;;9.80;64.40;;;;;;5038231;28;20025;-38
2021/10/11 06:53:52;;;;;;;28.40;16.98;;;9.90;64.10;;;;;;5038527;28;20025;-38
2021/10/11 06:56:18;;;;;;;30.33;17.98;;;9.90;63.80;;;;;;5037686;28;20053;-34
2021/10/11 06:58:44;;;;;;;31.08;17.52;;;10.00;63.60;;;;;;5038676;28;20057;-38
2021/10/11 07:01:10;;;;;;;30.60;18.63;;;10.00;63.40;;;;;;5037929;28;20022;-38
2021/10/11 07:03:38;;;;;;;28.25;18.38;;;10.10;63.30;;;;;;5038518;28;20034;-40
2021/10/11 07:06:07;;;;;;;27.35;16.48;;;10.10;63.20;;;;;;5037507;28;20052;-35
2021/10/11 07:08:33;;;;;;;38.13;20.33;;;10.20;63.10;;;;;;5038122;28;20406;-35
2021/10/11 07:11:00;;;;;;;122.35;22.92;;;10.20;62.90;;;;;;5037651;28;20017;-35
2021/10/11 07:13:25;;;;;;;30.85;18.20;;;10.20;62.70;;;;;;5038017;28;20026;-35
2021/10/11 07:15:52;;;;;;;34.45;17.88;;;10.20;62.50;;;;;;5037231;28;20326;-35
2021/10/11 07:18:17;;;;;;;28.85;17.27;;;10.30;62.50;;;;;;5037632;28;20083;-34
2021/10/11 07:20:45;;;;;;;28.58;17.20;;;10.40;62.40;;;;;;5037620;28;20064;-35
2021/10/11 07:23:12;;;;;;;35.50;19.67;;;10.40;62.20;;;;;;5037352;28;20033;-39
2021/10/11 07:25:38;;;;;;;46.20;19.80;;;10.40;62.00;;;;;;5037742;28;20044;-35
2021/10/11 07:28:04;;;;;;;72.38;33.70;;;10.50;62.00;;;;;;5037322;28;20026;-39
2021/10/11 07:30:31;;;;;;;35.38;20.13;;;10.50;61.70;;;;;;5037461;28;20025;-35
2021/10/11 07:32:57;;;;;;;80.88;45.70;;;10.60;61.40;;;;;;5037574;28;20034;-34
2021/10/11 07:35:22;;;;;;;33.47;20.63;;;10.60;61.20;;;;;;5037249;28;20033;-38
2021/10/11 07:37:48;;;;;;;34.13;19.77;;;10.70;61.20;;;;;;5037507;28;20030;-34
2021/10/11 07:40:14;;;;;;;39.75;23.13;;;10.70;61.20;;;;;;5037041;28;20030;-35
2021/10/11 07:42:40;;;;;;;35.25;19.83;;;10.80;61.10;;;;;;5037266;28;20065;-34
2021/10/11 07:45:06;;;;;;;33.78;16.45;;;10.80;60.90;;;;;;5037278;28;20049;-35
2021/10/11 07:47:31;;;;;;;31.77;17.05;;;10.90;60.80;;;;;;5037055;28;20029;-39
2021/10/11 07:49:57;;;;;;;43.80;18.90;;;10.90;60.70;;;;;;5036739;28;20109;-35
2021/10/11 07:52:22;;;;;;;48.42;30.50;;;11.00;60.60;;;;;;5036971;28;20037;-36
2021/10/11 07:54:48;;;;;;;31.13;19.15;;;11.00;60.60;;;;;;5036760;28;20025;-38
2021/10/11 07:57:14;;;;;;;34.17;18.35;;;11.10;60.50;;;;;;5036688;28;20338;-39
2021/10/11 07:59:39;;;;;;;41.78;24.20;;;11.10;60.50;;;;;;5037053;28;20155;-34
2021/10/11 08:02:05;;;;;;;30.00;17.13;;;11.20;60.60;;;;;;5036418;28;20440;-35
2021/10/11 08:04:31;;;;;;;39.50;22.75;;;11.20;60.50;;;;;;5036660;28;20022;-35
2021/10/11 08:06:56;;;;;;;26.42;17.02;;;11.30;60.50;;;;;;5036315;28;20074;-35
2021/10/11 08:09:22;;;;;;;30.60;16.65;;;11.40;60.50;;;;;;5036471;28;20026;-39
2021/10/11 08:11:48;;;;;;;32.20;19.15;;;11.40;60.30;;;;;;5036555;28;20053;-35
2021/10/11 08:14:14;;;;;;;29.27;18.05;;;11.50;60.20;;;;;;5036420;28;20299;-34
2021/10/11 08:16:40;;;;;;;26.95;17.27;;;11.50;60.00;;;;;;5036443;28;20028;-33
2021/10/11 08:19:10;;;;;;;39.00;22.70;;;11.60;59.90;;;;;;5035544;28;20032;-34
2021/10/11 08:21:36;;;;;;;31.98;18.25;;;11.60;59.80;;;;;;5036098;28;20053;-39
2021/10/11 08:24:04;;;;;;;37.58;23.45;;;11.70;59.60;;;;;;5036035;28;20021;-38
2021/10/11 08:26:30;;;;;;;42.33;21.58;;;11.70;59.50;;;;;;5035862;28;20035;-34
2021/10/11 08:28:56;;;;;;;26.23;16.17;;;11.70;59.40;;;;;;5036623;28;20425;-34
2021/10/11 08:31:22;;;;;;;33.75;18.30;;;11.80;59.50;;;;;;5035756;28;20013;-39
2021/10/11 08:33:48;;;;;;;29.05;18.27;;;11.90;59.60;;;;;;5036625;28;20448;-40
2021/10/11 08:36:14;;;;;;;31.90;18.45;;;12.00;60.00;;;;;;5036093;28;20079;-36
2021/10/11 08:38:40;;;;;;;32.03;17.88;;;12.00;59.70;;;;;;5036569;28;20037;-39
2021/10/11 08:41:08;;;;;;;29.85;17.40;;;12.00;59.30;;;;;;5035846;28;20059;-39
2021/10/11 08:43:38;;;;;;;29.38;17.33;;;12.10;59.10;;;;;;5036172;28;20030;-35
2021/10/11 08:46:05;;;;;;;;;;;12.20;58.70;;;;;;5035946;28;20053;-39
2021/10/11 08:48:32;;;;;;;35.42;17.08;;;12.20;58.90;;;;;;5036117;28;19917;-35
2021/10/11 08:50:59;;;;;;;30.27;16.20;;;12.30;58.70;;;;;;5035746;28;20030;-34
2021/10/11 08:53:25;;;;;;;46.63;18.05;;;12.30;58.50;;;;;;5035832;28;20030;-35
2021/10/11 08:55:50;;;;;;;26.75;15.23;;;12.40;58.00;;;;;;5035716;28;20034;-39
2021/10/11 08:58:16;;;;;;;22.15;12.77;;;12.50;57.80;;;;;;5035900;28;20064;-35
2021/10/11 09:00:42;;;;;;;21.67;14.18;;;12.50;57.40;;;;;;5035624;28;20026;-39
2021/10/11 09:03:09;;;;;;;21.98;14.48;;;12.60;57.10;;;;;;5035965;28;20116;-38
2021/10/11 09:05:36;;;;;;;34.30;16.25;;;12.60;57.00;;;;;;5035417;28;20029;-40
2021/10/11 09:08:11;;;;;;;30.23;17.58;;;12.60;57.00;;;;;;5035095;28;20041;-39
2021/10/11 09:10:52;;;;;;;31.73;19.13;;;12.70;57.20;;;;;;5035698;28;20100;-35
2021/10/11 09:13:33;;;;;;;22.92;14.27;;;12.80;57.30;;;;;;5035582;28;20087;-35
2021/10/11 09:19:16;;;;;;;23.63;14.35;;;12.90;56.50;;;;;;5035059;28;20042;-35
2021/10/11 09:21:43;;;;;;;26.00;14.57;;;13.00;56.10;;;;;;5035373;28;20026;-35
2021/10/11 09:24:10;;;;;;;23.90;14.07;;;13.00;55.70;;;;;;5035694;28;20375;-36
2021/10/11 09:26:56;;;;;;;22.02;13.85;;;13.10;55.50;;;;;;5035413;28;20104;-35
2021/10/11 09:29:34;;;;;;;22.23;13.20;;;13.20;55.20;;;;;;5035065;28;20136;-39
2021/10/11 09:32:07;;;;;;;30.58;16.88;;;13.20;54.90;;;;;;5035017;28;20108;-39
2021/10/11 09:34:35;;;;;;;40.88;15.95;;;13.30;54.70;;;;;;5035669;28;20291;-38
2021/10/11 09:37:04;;;;;;;21.60;13.30;;;13.40;54.70;;;;;;5034970;28;20108;-34
2021/10/11 09:39:33;;;;;;;28.58;13.45;;;13.50;54.60;;;;;;5035285;28;20032;-35
2021/10/11 09:42:00;;;;;;;27.67;14.18;;;13.50;54.40;;;;;;5035174;28;20087;-35
2021/10/11 09:44:27;;;;;;;27.85;16.73;;;13.60;54.30;;;;;;5035456;28;20029;-35
2021/10/11 09:47:09;;;;;;;29.45;17.42;;;13.70;54.20;;;;;;5034911;28;20026;-35
2021/10/11 09:49:35;;;;;;;38.55;21.60;;;13.80;54.00;;;;;;5035085;28;20068;-40
2021/10/11 09:52:01;;;;;;;33.28;15.57;;;13.90;53.60;;;;;;5034947;28;20434;-38
2021/10/11 09:54:27;;;;;;;23.75;13.52;;;14.00;53.10;;;;;;5035034;28;20476;-35
2021/10/11 09:56:53;;;;;;;28.42;14.68;;;14.00;52.90;;;;;;5034895;28;20073;-39
2021/10/11 09:59:19;;;;;;;22.75;13.13;;;14.10;52.60;;;;;;5035241;28;20116;-38
2021/10/11 10:01:46;;;;;;;28.55;13.75;;;14.10;52.40;;;;;;5034891;28;20418;-42
2021/10/11 10:04:23;;;;;;;30.08;13.30;;;14.20;52.20;;;;;;5034886;28;20036;-35
2021/10/11 10:06:52;;;;;;;30.02;15.10;;;14.30;52.10;;;;;;5034916;28;20033;-35
2021/10/11 10:09:19;;;;;;;21.10;11.95;;;14.40;52.00;;;;;;5034954;28;20160;-39
2021/10/11 10:11:45;;;;;;;23.90;11.73;;;14.50;51.80;;;;;;5034850;28;20014;-39
2021/10/11 10:14:25;;;;;;;37.85;22.17;;;14.60;51.70;;;;;;5034818;28;20318;-36
2021/10/11 10:16:52;;;;;;;41.80;19.10;;;14.70;51.00;;;;;;5034837;28;20030;-39
2021/10/11 10:19:35;;;;;;;30.92;14.20;;;14.80;51.00;;;;;;5035066;28;20037;-39
2021/10/11 10:22:13;;;;;;;31.02;15.85;;;14.80;50.60;;;;;;5034946;28;20107;-39
2021/10/11 10:24:40;;;;;;;34.75;21.85;;;14.90;50.50;;;;;;5035047;28;20099;-34
2021/10/11 10:27:09;;;;;;;19.35;13.02;;;15.00;50.30;;;;;;5034478;28;20026;-36
2021/10/11 10:29:43;;;;;;;62.05;29.95;;;15.10;50.10;;;;;;5034396;28;20083;-40
2021/10/11 10:32:09;;;;;;;47.47;27.45;;;15.20;50.10;;;;;;5034626;28;20362;-40
2021/10/11 10:34:35;;;;;;;26.80;16.75;;;15.30;49.80;;;;;;5034696;28;20104;-35
2021/10/11 10:37:08;;;;;;;22.63;13.90;;;15.30;49.50;;;;;;5034686;28;20388;-39
2021/10/11 10:39:49;;;;;;;21.27;12.95;;;15.50;49.20;;;;;;5034899;28;20084;-35
2021/10/11 10:42:26;;;;;;;18.80;10.10;;;15.60;48.60;;;;;;5036962;28;20022;-39
2021/10/11 10:44:52;;;;;;;21.02;9.68;;;15.60;48.40;;;;;;5038410;28;20037;-34
2021/10/11 10:47:29;;;;;;;22.67;13.10;;;15.70;47.40;;;;;;5037916;28;20033;-39
2021/10/11 10:49:55;;;;;;;16.15;8.73;;;15.70;47.10;;;;;;5038130;28;20152;-35
2021/10/11 10:52:20;;;;;;;19.10;8.55;;;15.90;46.50;;;;;;5037015;28;20117;-40
2021/10/11 10:55:00;;;;;;;11.32;7.35;;;15.90;45.80;;;;;;5038142;28;20101;-40
2021/10/11 10:57:29;;;;;;;10.45;6.60;;;16.00;45.20;;;;;;5038057;28;20149;-40
2021/10/11 10:59:57;;;;;;;12.65;6.95;;;16.10;45.10;;;;;;5037966;28;20033;-36
2021/10/11 11:02:23;;;;;;;14.00;7.95;;;16.20;44.60;;;;;;5037865;28;20314;-35
2021/10/11 11:04:58;;;;;;;17.90;7.72;;;16.30;44.50;;;;;;5037814;28;20022;-39
2021/10/11 11:07:34;;;;;;;22.83;12.27;;;16.40;44.10;;;;;;5037650;28;20037;-40
2021/10/11 11:10:03;;;;;;;18.23;10.27;;;16.50;44.40;;;;;;5037941;28;20018;-39
2021/10/11 11:12:31;;;;;;;15.60;8.15;;;16.60;44.50;;;;;;5037631;28;20061;-39
2021/10/11 11:14:57;;;;;;;13.15;8.60;;;16.70;44.30;;;;;;5037519;28;20104;-35
2021/10/11 11:17:33;;;;;;;15.77;8.15;;;16.70;44.20;;;;;;5037623;28;20199;-39
2021/10/11 11:19:59;;;;;;;28.17;15.13;;;16.80;43.80;;;;;;5037717;28;20025;-34
2021/10/11 11:22:33;;;;;;;28.23;11.98;;;16.90;43.80;;;;;;5037661;28;20413;-39
2021/10/11 11:25:04;;;;;;;20.67;9.55;;;17.00;43.40;;;;;;5037809;28;20061;-34
2021/10/11 11:27:53;;;;;;;15.18;8.07;;;17.10;43.50;;;;;;5037593;28;20335;-34
2021/10/11 11:30:18;;;;;;;20.27;9.98;;;17.20;43.30;;;;;;5037390;28;20022;-39
2021/10/11 11:32:49;;;;;;;13.68;8.02;;;17.20;43.20;;;;;;5037572;28;20312;-40
2021/10/11 11:35:17;;;;;;;30.55;8.88;;;17.30;43.10;;;;;;5037200;28;20029;-36
2021/10/11 11:37:51;;;;;;;11.32;6.57;;;17.40;42.80;;;;;;5037228;28;20083;-35
2021/10/11 11:40:19;;;;;;;12.18;6.13;;;17.50;42.10;;;;;;5037073;28;20444;-40
2021/10/11 11:42:46;;;;;;;13.90;7.22;;;17.60;42.00;;;;;;5037447;28;20045;-36
2021/10/11 11:45:12;;;;;;;13.57;6.45;;;17.70;41.70;;;;;;5037461;28;20299;-35
2021/10/11 11:47:38;;;;;;;15.43;7.30;;;17.80;41.60;;;;;;5037052;28;20353;-40
2021/10/11 11:50:17;;;;;;;26.95;13.05;;;17.90;41.20;;;;;;5036666;28;20076;-40
2021/10/11 11:52:46;;;;;;;25.67;13.05;;;18.10;40.80;;;;;;5036074;28;20367;-40
2021/10/11 11:55:11;;;;;;;17.83;9.55;;;18.20;40.20;;;;;;5037042;28;20030;-39
2021/10/11 11:57:43;;;;;;;14.63;8.98;;;18.40;40.40;;;;;;5036914;28;20053;-35
2021/10/11 12:00:11;;;;;;;12.82;7.63;;;18.50;39.90;;;;;;5036723;28;20033;-35
2021/10/11 12:02:40;;;;;;;25.13;15.25;;;18.70;39.60;;;;;;5036844;28;20068;-35
2021/10/11 12:05:07;;;;;;;13.20;8.05;;;18.90;39.70;;;;;;5036755;28;20480;-35
2021/10/11 12:07:33;;;;;;;11.65;6.78;;;19.00;39.20;;;;;;5036715;28;20038;-39
2021/10/11 12:09:59;;;;;;;30.15;8.45;;;19.20;38.70;;;;;;5036808;28;20029;-35
2021/10/11 12:12:33;;;;;;;11.07;5.93;;;19.30;38.10;;;;;;5036422;28;20448;-35
2021/10/11 12:14:59;;;;;;;15.45;7.22;;;19.50;37.20;;;;;;5036264;28;20033;-35
2021/10/11 12:17:37;;;;;;;12.15;6.82;;;19.70;37.10;;;;;;5036455;28;20025;-40
2021/10/11 12:20:03;;;;;;;16.75;6.47;;;19.80;36.50;;;;;;5035099;28;20045;-35
2021/10/11 12:22:30;;;;;;;17.73;8.20;;;20.00;36.50;;;;;;5036433;28;20037;-35
2021/10/11 12:25:08;;;;;;;12.05;6.22;;;20.10;35.80;;;;;;5036530;28;20036;-38
2021/10/11 12:27:34;;;;;;;11.98;6.55;;;20.20;35.30;;;;;;5035877;28;20025;-40
2021/10/11 12:30:05;;;;;;;24.55;6.05;;;20.40;35.20;;;;;;5036105;28;20047;-37
2021/10/11 12:32:35;;;;;;;16.63;5.78;;;20.50;33.50;;;;;;5036485;28;20113;-40
2021/10/11 12:35:03;;;;;;;12.30;7.97;;;20.60;32.90;;;;;;5036103;28;20026;-36
2021/10/11 12:37:38;;;;;;;7.30;5.60;;;20.70;33.10;;;;;;5036099;28;20459;-36